Time;durP1;ratioP1;P1;durP2;ratioP2;P2;SDS_P1;SDS_P2;PMS_P1;PMS_P2;Temp;Humidity;BMP_temperature;BMP_pressure;BME280_temperature;BME280_humidity;BME280_pressure;Samples;Min_cycle;Max_cycle;Signal;HPM_P1;HPM_P2
2021/05/17 00:00:22;;;;;;;3.12;1.30;;;;;;;16.16;66.57;98597.69;1696507;82;21170;-53
2021/05/17 00:02:49;;;;;;;4.30;0.90;;;;;;;16.17;66.85;98599.42;1709279;82;21430;-57
2021/05/17 00:05:16;;;;;;;4.28;1.27;;;;;;;16.17;66.77;98601.27;1680018;82;21096;-57
2021/05/17 00:07:43;;;;;;;1.37;0.80;;;;;;;16.18;66.50;98600.28;1701291;82;21126;-55
2021/05/17 00:10:10;;;;;;;1.92;1.02;;;;;;;16.20;66.50;98601.01;1700830;82;21111;-54
2021/05/17 00:12:37;;;;;;;7.08;1.25;;;;;;;16.23;66.50;98595.31;1706617;82;20977;-53
2021/05/17 00:15:08;;;;;;;2.15;0.90;;;;;;;16.24;66.61;98599.26;1702927;82;21170;-53
2021/05/17 00:17:35;;;;;;;2.50;0.80;;;;;;;16.24;66.62;98599.75;1724811;81;21066;-54
2021/05/17 00:20:05;;;;;;;1.17;0.90;;;;;;;16.22;66.50;98603.09;1725779;81;21710;-55
2021/05/17 00:22:33;;;;;;;1.80;1.05;;;;;;;16.23;66.33;98603.46;1701508;82;21253;-56
2021/05/17 00:25:01;;;;;;;2.87;0.80;;;;;;;16.23;66.80;98607.53;1702595;82;21543;-57
2021/05/17 00:27:28;;;;;;;3.12;1.10;;;;;;;16.21;67.20;98605.45;1699473;82;21139;-54
2021/05/17 00:29:56;;;;;;;2.42;0.90;;;;;;;16.19;67.54;98608.79;1703437;82;21056;-53
2021/05/17 00:32:23;;;;;;;2.95;0.90;;;;;;;16.19;67.97;98611.50;1709437;82;21119;-55
2021/05/17 00:34:49;;;;;;;4.25;0.72;;;;;;;16.17;68.63;98605.34;1703341;82;21120;-52
2021/05/17 00:37:16;;;;;;;1.77;0.88;;;;;;;16.16;68.93;98601.77;1701889;82;21163;-53
2021/05/17 00:39:43;;;;;;;1.45;0.90;;;;;;;16.13;69.23;98593.91;1702860;82;21146;-55
2021/05/17 00:42:11;;;;;;;4.80;0.90;;;;;;;16.13;69.78;98592.56;1701317;82;21104;-52
2021/05/17 00:44:40;;;;;;;4.30;0.90;;;;;;;16.11;70.04;98576.90;1699401;82;21110;-54
2021/05/17 00:47:10;;;;;;;2.95;0.80;;;;;;;16.11;69.99;98571.47;1705961;82;21625;-51
2021/05/17 00:49:39;;;;;;;1.55;0.78;;;;;;;16.09;70.08;98577.53;1695939;82;21569;-51
2021/05/17 00:52:09;;;;;;;2.35;0.80;;;;;;;16.05;70.16;98576.59;1697362;83;22147;-56
2021/05/17 00:54:36;;;;;;;4.30;0.80;;;;;;;16.01;70.27;98562.92;1719127;81;21055;-53
2021/05/17 00:57:04;;;;;;;1.98;0.70;;;;;;;15.98;70.63;98564.08;1704081;83;20937;-53
2021/05/17 00:59:32;;;;;;;2.40;0.80;;;;;;;15.98;70.83;98568.14;1703525;83;21098;-52
2021/05/17 01:02:00;;;;;;;1.20;0.70;;;;;;;15.97;71.13;98572.34;1701610;83;21487;-56
2021/05/17 01:04:30;;;;;;;1.47;0.80;;;;;;;15.97;71.48;98579.99;1695324;83;20949;-55
2021/05/17 01:06:58;;;;;;;1.45;0.70;;;;;;;15.98;71.58;98581.72;1680567;83;21005;-54
2021/05/17 01:09:26;;;;;;;1.10;0.80;;;;;;;15.97;71.59;98584.06;1696474;81;21777;-56
2021/05/17 01:12:00;;;;;;;1.52;1.00;;;;;;;15.97;71.42;98572.34;1697917;83;20979;-55
2021/05/17 01:14:27;;;;;;;2.60;0.62;;;;;;;15.96;71.43;98565.20;1701108;83;21740;-52
2021/05/17 01:16:56;;;;;;;2.02;0.60;;;;;;;15.95;71.37;98552.13;1701153;83;21614;-55
2021/05/17 01:19:43;;;;;;;1.72;0.70;;;;;;;15.95;71.19;98549.91;1724143;81;21453;-56
2021/05/17 01:22:21;;;;;;;2.02;0.70;;;;;;;15.93;70.55;98548.68;1680644;83;20969;-51
2021/05/17 01:24:39;;;;;;;7.00;0.80;;;;;;;15.92;70.01;98545.60;1674975;83;22054;-55
2021/05/17 01:27:07;;;;;;;1.92;0.80;;;;;;;15.92;69.94;98556.45;1697508;83;20945;-52
2021/05/17 01:29:37;;;;;;;1.72;0.90;;;;;;;15.94;69.71;98569.40;1700864;83;20932;-55
2021/05/17 01:32:05;;;;;;;2.17;0.78;;;;;;;15.96;69.49;98585.55;1721417;81;21011;-52
2021/05/17 01:34:32;;;;;;;5.62;0.90;;;;;;;15.96;69.07;98590.48;1723940;81;21164;-51
2021/05/17 01:36:59;;;;;;;1.67;0.90;;;;;;;15.95;68.78;98587.41;1715168;81;21194;-53
2021/05/17 01:39:26;;;;;;;2.75;0.70;;;;;;;15.96;69.27;98578.77;1697135;83;20968;-51
2021/05/17 01:41:53;;;;;;;2.80;0.90;;;;;;;15.98;69.80;98579.50;1717786;81;20963;-52
2021/05/17 01:44:24;;;;;;;1.90;0.70;;;;;;;15.97;69.94;98578.64;1725401;81;21015;-52
2021/05/17 01:46:51;;;;;;;1.70;1.17;;;;;;;15.98;70.09;98579.50;1696792;81;20952;-54
2021/05/17 01:49:18;;;;;;;1.20;0.80;;;;;;;15.98;70.54;98580.85;1712067;80;21029;-55
2021/05/17 01:51:51;;;;;;;3.72;0.90;;;;;;;16.00;71.08;98577.48;1738678;80;21109;-56
2021/05/17 01:54:19;;;;;;;1.82;1.00;;;;;;;16.03;71.45;98588.08;1726748;81;20975;-56
2021/05/17 01:56:47;;;;;;;1.22;1.10;;;;;;;16.03;71.52;98594.37;1726532;81;21437;-55
2021/05/17 01:59:30;;;;;;;1.87;0.98;;;;;;;16.03;71.51;98594.37;1729932;81;21008;-55
2021/05/17 02:01:58;;;;;;;4.87;1.17;;;;;;;16.05;71.63;98598.31;1705698;81;21058;-54
2021/05/17 02:04:25;;;;;;;4.30;0.80;;;;;;;16.05;71.97;98596.45;1702098;81;22419;-54
2021/05/17 02:06:53;;;;;;;1.02;0.90;;;;;;;16.05;72.21;98588.80;1725249;81;21050;-55
2021/05/17 02:09:20;;;;;;;1.40;0.90;;;;;;;16.04;72.44;98576.23;1726535;81;21191;-54
2021/05/17 02:11:47;;;;;;;1.20;0.80;;;;;;;16.03;72.83;98578.08;1705780;81;21142;-54
2021/05/17 02:14:18;;;;;;;1.98;0.90;;;;;;;16.01;72.97;98576.48;1731291;81;21114;-55
2021/05/17 02:16:46;;;;;;;1.00;0.80;;;;;;;16.01;73.17;98575.99;1701720;81;21078;-54
2021/05/17 02:19:13;;;;;;;1.60;1.00;;;;;;;16.03;73.20;98569.08;1729320;81;20940;-54
2021/05/17 02:21:41;;;;;;;2.75;1.05;;;;;;;16.03;73.47;98565.87;1732278;81;21039;-53
2021/05/17 02:24:09;;;;;;;3.22;1.35;;;;;;;16.01;73.69;98569.20;1678252;81;21090;-53
2021/05/17 02:26:36;;;;;;;2.50;1.00;;;;;;;15.94;73.63;98559.90;1729134;81;21111;-53
2021/05/17 02:29:03;;;;;;;1.77;1.30;;;;;;;15.88;73.85;98557.24;1723934;81;21569;-53
2021/05/17 02:31:31;;;;;;;4.00;0.98;;;;;;;15.86;74.11;98551.58;1729309;81;21099;-53
2021/05/17 02:34:01;;;;;;;1.90;0.98;;;;;;;15.83;74.27;98544.56;1730076;81;21086;-55
2021/05/17 02:36:28;;;;;;;2.00;0.88;;;;;;;15.81;74.43;98543.00;1725212;81;21087;-54
2021/05/17 02:38:55;;;;;;;1.47;1.05;;;;;;;15.79;74.69;98532.28;1726010;81;21679;-54
2021/05/17 02:41:22;;;;;;;1.62;1.00;;;;;;;15.79;74.89;98536.84;1727580;81;21116;-54
2021/05/17 02:43:49;;;;;;;2.10;0.90;;;;;;;15.78;75.11;98527.84;1708943;81;21428;-55
2021/05/17 02:46:18;;;;;;;2.00;0.90;;;;;;;15.79;75.28;98517.86;1725617;81;21135;-53
2021/05/17 02:48:46;;;;;;;3.22;0.90;;;;;;;15.79;75.43;98511.08;1727480;81;21095;-54
2021/05/17 02:51:13;;;;;;;4.08;1.07;;;;;;;15.78;75.47;98495.78;1723901;81;21511;-53
2021/05/17 02:53:50;;;;;;;4.67;1.12;;;;;;;15.77;75.44;98494.06;1720202;81;21149;-53
2021/05/17 02:56:20;;;;;;;2.25;1.10;;;;;;;15.75;75.29;98494.69;1753180;79;21087;-53
2021/05/17 02:58:51;;;;;;;3.72;1.20;;;;;;;15.72;75.14;98494.48;1754253;79;21133;-53
2021/05/17 03:01:25;;;;;;;2.23;1.23;;;;;;;15.68;75.04;98490.31;1754448;79;21580;-53
2021/05/17 03:03:53;;;;;;;2.33;1.02;;;;;;;15.68;75.03;98494.38;1733001;79;21166;-54
2021/05/17 03:06:34;;;;;;;2.10;1.00;;;;;;;15.67;75.09;98495.38;1752441;79;21183;-53
2021/05/17 03:09:08;;;;;;;4.25;1.30;;;;;;;15.66;75.18;98504.50;1722008;81;21536;-53
2021/05/17 03:11:42;;;;;;;6.12;1.10;;;;;;;15.64;75.35;98505.66;1758722;79;20948;-52
2021/05/17 03:14:09;;;;;;;3.30;1.30;;;;;;;15.65;75.42;98506.02;1752834;79;20933;-52
2021/05/17 03:16:37;;;;;;;2.92;1.20;;;;;;;15.65;75.48;98496.53;1755392;79;21111;-52
2021/05/17 03:19:06;;;;;;;3.35;1.42;;;;;;;15.63;75.69;98481.74;1758630;79;21461;-53
2021/05/17 03:21:32;;;;;;;4.22;1.55;;;;;;;15.60;75.85;98476.58;1674315;81;21544;-52
2021/05/17 03:23:59;;;;;;;5.25;1.80;;;;;;;15.57;75.96;98464.63;1723807;81;21699;-52
2021/05/17 03:26:26;;;;;;;4.87;1.60;;;;;;;15.55;76.04;98462.58;1732706;81;21052;-53
2021/05/17 03:28:52;;;;;;;2.85;2.22;;;;;;;15.52;76.09;98447.39;1728056;81;21560;-52
2021/05/17 03:31:19;;;;;;;3.55;1.80;;;;;;;15.49;76.06;98445.44;1724433;81;21174;-52
2021/05/17 03:33:45;;;;;;;5.65;1.67;;;;;;;15.47;76.00;98432.55;1721617;81;21099;-53
2021/05/17 03:36:12;;;;;;;4.83;1.50;;;;;;;15.44;75.99;98416.53;1716588;81;21028;-52
2021/05/17 03:38:38;;;;;;;2.33;1.12;;;;;;;15.43;76.08;98410.74;1718734;81;21401;-52
2021/05/17 03:41:06;;;;;;;3.55;1.25;;;;;;;15.44;75.75;98408.40;1718503;81;21516;-53
2021/05/17 03:43:33;;;;;;;5.67;1.75;;;;;;;15.40;75.73;98392.89;1717735;81;21122;-52
2021/05/17 03:46:00;;;;;;;4.67;1.20;;;;;;;15.38;75.73;98391.33;1720278;81;21113;-53
2021/05/17 03:48:26;;;;;;;5.08;1.62;;;;;;;15.35;75.75;98390.23;1755326;79;21197;-53
2021/05/17 03:50:54;;;;;;;2.90;1.00;;;;;;;15.32;75.76;98390.00;1760060;79;21069;-53
2021/05/17 03:53:21;;;;;;;1.87;1.00;;;;;;;15.31;75.68;98384.22;1754306;79;21111;-52
2021/05/17 03:55:47;;;;;;;1.60;1.12;;;;;;;15.27;75.69;98389.56;1752715;79;21390;-54
2021/05/17 03:58:14;;;;;;;1.40;1.05;;;;;;;15.26;75.89;98400.54;1755281;79;21425;-53
2021/05/17 04:00:40;;;;;;;2.55;0.80;;;;;;;15.26;75.92;98408.67;1754642;79;21513;-53
2021/05/17 04:03:14;;;;;;;2.95;0.90;;;;;;;15.29;75.98;98411.12;1756985;79;20956;-53
2021/05/17 04:05:37;;;;;;;2.90;0.90;;;;;;;15.33;75.91;98411.20;1756174;79;21584;-52
2021/05/17 04:13:26;;;;;;;1.62;1.10;;;;;;;15.39;75.74;98406.11;1758728;79;21000;-53
2021/05/17 04:15:53;;;;;;;1.60;0.90;;;;;;;15.40;75.70;98402.38;1757394;79;20904;-52
2021/05/17 04:18:20;;;;;;;2.75;1.30;;;;;;;15.41;75.62;98401.39;1728199;80;21493;-52
2021/05/17 04:20:48;;;;;;;2.12;1.00;;;;;;;15.43;75.65;98399.90;1756643;79;21410;-52
2021/05/17 04:23:14;;;;;;;2.75;0.90;;;;;;;15.46;75.62;98392.86;1756826;79;21533;-53
2021/05/17 04:25:42;;;;;;;2.40;1.10;;;;;;;15.48;75.64;98397.66;1759759;79;20999;-54
2021/05/17 04:28:08;;;;;;;2.27;0.90;;;;;;;15.51;75.60;98400.06;1759557;79;21545;-52
2021/05/17 04:30:34;;;;;;;4.03;1.00;;;;;;;15.52;75.49;98402.65;1755033;79;21466;-52
2021/05/17 04:33:01;;;;;;;1.20;0.78;;;;;;;15.56;75.55;98400.56;1762506;79;20935;-53
2021/05/17 04:35:27;;;;;;;1.95;1.17;;;;;;;15.60;75.35;98403.34;1757298;79;21330;-52
2021/05/17 04:37:53;;;;;;;2.33;1.10;;;;;;;15.63;75.30;98400.87;1760514;79;20932;-54
2021/05/17 04:40:20;;;;;;;1.62;1.20;;;;;;;15.66;75.35;98408.70;1759301;79;21135;-54
2021/05/17 04:42:46;;;;;;;1.17;1.00;;;;;;;15.70;75.04;98425.94;1755421;79;21422;-53
2021/05/17 04:45:13;;;;;;;1.80;1.15;;;;;;;15.73;74.70;98431.59;1754147;79;21123;-53
2021/05/17 04:47:40;;;;;;;1.50;1.02;;;;;;;15.75;74.51;98437.22;1761981;79;20960;-52
2021/05/17 04:50:07;;;;;;;1.32;0.93;;;;;;;15.79;74.36;98434.61;1757954;79;20999;-54
2021/05/17 04:52:34;;;;;;;1.17;0.95;;;;;;;15.83;74.11;98434.67;1757725;79;20888;-52
2021/05/17 04:55:00;;;;;;;2.17;1.20;;;;;;;15.89;73.88;98430.07;1763944;79;21504;-54
2021/05/17 04:57:27;;;;;;;3.27;1.45;;;;;;;15.93;73.71;98429.77;1755554;79;21370;-54
2021/05/17 04:59:54;;;;;;;2.05;1.10;;;;;;;15.94;73.57;98427.42;1759266;79;21537;-53
2021/05/17 05:02:20;;;;;;;2.00;1.00;;;;;;;15.94;73.61;98423.35;1760476;79;21047;-51
2021/05/17 05:04:46;;;;;;;1.25;0.80;;;;;;;15.94;73.63;98422.00;1760587;79;21106;-53
2021/05/17 05:07:14;;;;;;;1.47;0.93;;;;;;;15.97;73.55;98406.80;1753295;79;21199;-53
2021/05/17 05:09:42;;;;;;;1.72;1.00;;;;;;;15.99;73.14;98402.92;1762088;79;20972;-53
2021/05/17 05:12:10;;;;;;;2.30;1.00;;;;;;;15.99;73.14;98402.92;1758010;79;21166;-53
2021/05/17 05:14:37;;;;;;;1.77;0.90;;;;;;;16.06;73.16;98401.89;1758344;79;20923;-54
2021/05/17 05:17:04;;;;;;;1.92;1.35;;;;;;;16.07;73.21;98395.47;1762198;79;20983;-52
2021/05/17 05:19:30;;;;;;;2.40;1.17;;;;;;;16.07;73.21;98395.47;1761585;79;21641;-52
2021/05/17 05:21:57;;;;;;;1.77;1.37;;;;;;;16.09;73.25;98389.38;1765155;79;21067;-52
2021/05/17 05:24:25;;;;;;;1.25;1.00;;;;;;;16.18;73.26;98379.02;1757544;79;21066;-52
2021/05/17 05:26:58;;;;;;;1.92;1.20;;;;;;;16.21;72.90;98375.53;1758065;79;21158;-53
2021/05/17 05:29:36;;;;;;;1.95;1.40;;;;;;;16.21;72.90;98375.53;1759335;79;22528;-53
2021/05/17 05:32:05;;;;;;;1.95;1.20;;;;;;;16.26;73.02;98363.73;1755185;79;21792;-53
2021/05/17 05:34:29;;;;;;;1.40;1.30;;;;;;;16.26;73.02;98363.73;1716989;81;21181;-54
2021/05/17 05:37:01;;;;;;;1.42;1.25;;;;;;;16.36;73.23;98356.09;1756858;79;21071;-52
2021/05/17 05:39:28;;;;;;;2.40;1.20;;;;;;;16.36;73.23;98350.66;1755211;79;21599;-53
2021/05/17 05:41:54;;;;;;;1.85;0.90;;;;;;;16.47;73.09;98361.38;1757070;79;21392;-53
2021/05/17 05:44:20;;;;;;;5.75;0.80;;;;;;;16.47;73.09;98361.38;1760663;79;21127;-53
2021/05/17 05:46:47;;;;;;;0.80;0.80;;;;;;;16.51;73.10;98361.43;1761826;79;21262;-54
2021/05/17 05:49:14;;;;;;;3.95;0.72;;;;;;;16.55;73.02;98350.64;1760592;79;21059;-54
2021/05/17 05:51:42;;;;;;;2.45;0.80;;;;;;;16.57;72.81;98344.08;1755140;79;21089;-53
2021/05/17 05:54:09;;;;;;;1.20;0.90;;;;;;;16.60;72.44;98350.55;1760028;79;20999;-54
2021/05/17 05:56:36;;;;;;;1.17;0.90;;;;;;;16.60;72.32;98340.19;1763715;79;21054;-54
2021/05/17 05:59:02;;;;;;;1.15;0.80;;;;;;;16.60;72.24;98329.32;1760652;79;20963;-54
2021/05/17 06:01:29;;;;;;;0.93;0.82;;;;;;;16.60;71.87;98326.60;1760864;79;20974;-53
2021/05/17 06:03:56;;;;;;;1.22;0.70;;;;;;;16.61;72.05;98314.77;1759805;79;21623;-53
2021/05/17 06:06:22;;;;;;;1.35;0.80;;;;;;;16.61;72.08;98306.12;1761865;79;20897;-54
2021/05/17 06:08:49;;;;;;;1.10;0.60;;;;;;;16.60;72.03;98304.38;1766547;79;21022;-54
2021/05/17 06:11:15;;;;;;;0.98;0.70;;;;;;;16.59;71.79;98301.30;1765177;79;21077;-52
2021/05/17 06:13:44;;;;;;;0.95;0.65;;;;;;;16.57;71.67;98292.97;1765755;79;21062;-52
2021/05/17 06:16:11;;;;;;;1.37;0.70;;;;;;;16.54;71.46;98289.17;1761965;79;20944;-54
2021/05/17 06:18:38;;;;;;;1.57;0.70;;;;;;;16.49;71.54;98287.41;1763342;79;20900;-53
2021/05/17 06:21:05;;;;;;;1.00;0.65;;;;;;;16.45;71.47;98277.33;1759200;79;21711;-52
2021/05/17 06:23:33;;;;;;;0.93;0.60;;;;;;;16.42;71.81;98269.46;1763028;79;21071;-53
2021/05/17 06:25:59;;;;;;;2.45;0.60;;;;;;;16.41;71.61;98260.98;1764256;79;21099;-54
2021/05/17 06:28:26;;;;;;;1.42;0.53;;;;;;;16.38;71.46;98258.55;1763733;79;21111;-54
2021/05/17 06:30:56;;;;;;;0.85;0.60;;;;;;;16.37;71.95;98239.19;1758491;79;21076;-55
2021/05/17 06:33:22;;;;;;;2.22;0.78;;;;;;;16.40;72.15;98240.26;1762309;79;21076;-53
2021/05/17 06:35:58;;;;;;;1.65;0.80;;;;;;;16.45;72.32;98239.30;1763176;79;21572;-53
2021/05/17 06:38:25;;;;;;;2.30;0.82;;;;;;;16.50;72.10;98244.31;1762680;79;21063;-54
2021/05/17 06:40:56;;;;;;;3.62;0.85;;;;;;;16.54;72.19;98251.14;1753907;79;21449;-55
2021/05/17 06:43:24;;;;;;;1.87;0.72;;;;;;;16.57;72.23;98261.23;1766387;79;21139;-54
2021/05/17 06:45:52;;;;;;;2.42;0.70;;;;;;;16.60;72.27;98278.56;1764233;79;21076;-54
2021/05/17 06:48:18;;;;;;;0.80;0.53;;;;;;;16.61;72.07;98291.18;1720585;81;20970;-54
2021/05/17 06:50:46;;;;;;;2.58;0.78;;;;;;;16.63;72.23;98291.04;1771612;79;20901;-54
2021/05/17 06:53:12;;;;;;;1.35;0.70;;;;;;;16.64;72.16;98297.69;1766772;79;20976;-54
2021/05/17 06:55:45;;;;;;;1.72;0.70;;;;;;;16.71;72.23;98307.96;1761163;79;20960;-53
2021/05/17 06:58:18;;;;;;;0.72;0.60;;;;;;;16.73;72.14;98301.39;1763804;79;21044;-52
2021/05/17 07:00:40;;;;;;;1.55;0.70;;;;;;;16.76;72.22;98300.24;1764654;79;20916;-54
2021/05/17 07:03:08;;;;;;;2.95;0.78;;;;;;;16.78;72.38;98301.78;1765919;79;21438;-53
2021/05/17 07:05:36;;;;;;;0.70;0.70;;;;;;;16.79;72.23;98307.58;1724662;81;21459;-54
2021/05/17 07:13:16;;;;;;;1.30;0.50;;;;;;;16.92;72.10;98316.28;1767345;79;20971;-54
2021/05/17 07:15:43;;;;;;;0.72;0.50;;;;;;;16.98;72.01;98301.22;1760566;79;21413;-54
2021/05/17 07:18:10;;;;;;;0.65;0.60;;;;;;;17.00;72.01;98291.92;1766174;79;21709;-54
2021/05/17 07:25:59;;;;;;;0.90;0.70;;;;;;;17.15;71.82;98292.78;1763108;79;20962;-53
2021/05/17 07:28:26;;;;;;;2.45;0.60;;;;;;;17.21;71.77;98285.37;1761284;79;20921;-53
2021/05/17 07:30:52;;;;;;;3.33;0.80;;;;;;;17.25;71.53;98284.94;1758828;79;20974;-54
2021/05/17 07:33:19;;;;;;;4.08;0.57;;;;;;;17.32;71.49;98286.03;1763094;79;21486;-54
2021/05/17 07:35:45;;;;;;;0.60;0.50;;;;;;;17.39;70.67;98287.13;1760655;79;21550;-55
2021/05/17 07:38:12;;;;;;;1.27;0.55;;;;;;;17.46;70.45;98280.58;1757807;79;20951;-52
2021/05/17 07:40:38;;;;;;;1.42;0.50;;;;;;;17.55;70.38;98266.55;1762365;79;21127;-53
2021/05/17 07:43:04;;;;;;;2.60;0.47;;;;;;;17.62;70.09;98272.63;1762358;79;21584;-53
2021/05/17 07:45:31;;;;;;;0.68;0.50;;;;;;;17.70;70.04;98292.25;1763745;79;22567;-54
2021/05/17 07:47:57;;;;;;;0.60;0.50;;;;;;;17.75;69.79;98311.72;1749588;79;25991;-55
2021/05/17 07:50:24;;;;;;;0.55;0.40;;;;;;;17.82;69.05;98316.89;1750287;80;21168;-53
2021/05/17 07:52:50;;;;;;;1.95;0.40;;;;;;;17.87;68.70;98325.44;1750247;80;21069;-53
2021/05/17 07:55:20;;;;;;;0.40;0.40;;;;;;;17.91;68.59;98313.75;1750227;80;21086;-53
2021/05/17 07:57:45;;;;;;;0.53;0.40;;;;;;;17.98;68.51;98318.92;1747817;80;21121;-54
2021/05/17 08:00:13;;;;;;;1.00;0.40;;;;;;;18.06;68.34;98310.33;1750917;80;22403;-53
2021/05/17 08:04:33;;;;;;;2.50;1.00;;;;;;;18.26;67.59;98309.66;1797131;78;26507;-55
2021/05/17 08:06:59;;;;;;;2.75;0.50;;;;;;;18.29;67.42;98303.05;1765112;79;20980;-54
2021/05/17 08:09:26;;;;;;;1.75;0.40;;;;;;;18.32;66.62;98297.27;1702965;81;22829;-52
2021/05/17 08:11:53;;;;;;;1.45;0.45;;;;;;;18.35;66.09;98309.23;1725631;81;21641;-54
2021/05/17 08:14:19;;;;;;;0.50;0.50;;;;;;;18.38;66.18;98305.66;1705542;81;21011;-53
2021/05/17 08:16:46;;;;;;;5.20;0.50;;;;;;;18.43;66.43;98318.83;1719537;81;21086;-54
2021/05/17 08:19:14;;;;;;;1.37;0.50;;;;;;;18.46;65.55;98328.88;1734336;81;21344;-54
2021/05/17 08:21:41;;;;;;;0.60;0.50;;;;;;;18.47;65.50;98326.52;1733236;81;22061;-55
2021/05/17 08:24:09;;;;;;;1.65;0.70;;;;;;;18.49;65.37;98326.36;1734608;81;21024;-54
2021/05/17 08:26:35;;;;;;;2.90;0.50;;;;;;;18.51;65.59;98324.34;1734871;81;21031;-53
2021/05/17 08:29:02;;;;;;;1.92;0.50;;;;;;;18.52;65.48;98323.33;1734495;81;21106;-54
2021/05/17 08:31:31;;;;;;;0.65;0.45;;;;;;;18.54;65.33;98336.30;1735323;81;21107;-55
2021/05/17 08:33:57;;;;;;;2.55;0.40;;;;;;;18.58;65.32;98345.88;1738007;81;21750;-54
2021/05/17 08:36:23;;;;;;;3.00;0.60;;;;;;;18.59;65.62;98345.38;1706754;81;21602;-54
2021/05/17 08:38:49;;;;;;;8.55;0.88;;;;;;;18.63;65.73;98342.16;1741997;81;21223;-53
2021/05/17 08:41:16;;;;;;;2.00;0.60;;;;;;;18.66;65.93;98347.81;1700459;82;21142;-53
2021/05/17 08:43:43;;;;;;;1.50;0.62;;;;;;;18.67;65.90;98357.70;1706160;81;20920;-53
2021/05/17 08:46:10;;;;;;;1.57;0.55;;;;;;;18.67;65.74;98365.88;1741987;81;21655;-53
2021/05/17 08:48:48;;;;;;;1.07;0.60;;;;;;;18.65;66.04;98368.76;1706521;81;21143;-53
2021/05/17 08:51:17;;;;;;;0.80;0.60;;;;;;;18.62;65.53;98371.81;1741218;81;21329;-53
2021/05/17 08:53:44;;;;;;;1.40;0.57;;;;;;;18.62;65.49;98370.96;1736195;81;21190;-53
2021/05/17 08:56:10;;;;;;;0.90;0.60;;;;;;;18.62;65.62;98365.52;1735050;81;21095;-55
2021/05/17 08:58:37;;;;;;;0.73;0.50;;;;;;;18.64;65.66;98361.59;1738630;81;21414;-54
2021/05/17 09:01:04;;;;;;;0.98;0.42;;;;;;;18.68;65.84;98371.68;1738152;81;21640;-53
2021/05/17 09:03:31;;;;;;;2.15;0.50;;;;;;;18.70;65.74;98375.97;1732805;81;21640;-53
2021/05/17 09:06:07;;;;;;;0.42;0.40;;;;;;;18.73;65.79;98367.45;1726011;82;21096;-53
2021/05/17 09:08:43;;;;;;;0.82;0.60;;;;;;;18.75;65.71;98362.71;1766607;80;20928;-54
2021/05/17 09:11:10;;;;;;;1.95;0.40;;;;;;;18.77;65.69;98356.59;1766939;80;21601;-54
2021/05/17 09:13:36;;;;;;;0.90;0.50;;;;;;;18.77;65.18;98350.29;1724378;82;21137;-54
2021/05/17 09:16:03;;;;;;;0.40;0.40;;;;;;;18.77;64.95;98347.06;1759853;80;21112;-54
2021/05/17 09:18:32;;;;;;;1.25;0.60;;;;;;;18.78;65.02;98352.86;1763197;80;21326;-54
2021/05/17 09:21:05;;;;;;;0.85;0.40;;;;;;;18.78;64.56;98358.31;1758377;80;21116;-53
2021/05/17 09:23:33;;;;;;;0.37;0.37;;;;;;;18.78;64.30;98362.91;1725864;82;21594;-54
2021/05/17 09:26:14;;;;;;;1.15;0.50;;;;;;;18.76;64.23;98360.84;1724171;82;21140;-54
2021/05/17 09:28:41;;;;;;;0.42;0.42;;;;;;;18.73;64.08;98369.32;1698410;82;21736;-54
2021/05/17 09:31:22;;;;;;;0.47;0.40;;;;;;;18.70;64.04;98366.43;1758517;80;21103;-54
2021/05/17 09:33:57;;;;;;;0.68;0.50;;;;;;;18.68;64.26;98372.54;1764706;80;21743;-54
2021/05/17 09:36:37;;;;;;;0.70;0.47;;;;;;;18.65;64.37;98374.20;1698765;82;21171;-52
2021/05/17 09:39:10;;;;;;;2.00;0.50;;;;;;;18.59;64.29;98380.30;1761897;80;21764;-53
2021/05/17 09:41:55;;;;;;;1.65;0.30;;;;;;;18.53;64.61;98378.18;1760562;80;21096;-53
2021/05/17 09:44:23;;;;;;;2.05;0.40;;;;;;;18.52;64.82;98377.83;1765751;80;20948;-54
2021/05/17 09:47:09;;;;;;;0.53;0.35;;;;;;;18.52;64.97;98380.55;1762644;80;20980;-54
2021/05/17 09:49:52;;;;;;;0.57;0.40;;;;;;;18.54;65.20;98377.17;1763041;80;21044;-53
2021/05/17 09:52:22;;;;;;;0.70;0.40;;;;;;;18.54;64.95;98384.81;1762074;80;20971;-54
2021/05/17 09:55:03;;;;;;;0.60;0.50;;;;;;;18.53;64.90;98378.18;1730219;82;21509;-54
2021/05/17 09:57:47;;;;;;;2.17;0.50;;;;;;;18.49;64.80;98380.85;1703184;82;20972;-53
2021/05/17 10:00:32;;;;;;;2.90;0.50;;;;;;;18.44;65.17;98389.51;1763827;80;20890;-53
2021/05/17 10:02:58;;;;;;;1.90;0.47;;;;;;;18.39;65.23;98388.25;1759019;80;21033;-54
2021/05/17 10:05:26;;;;;;;1.95;0.40;;;;;;;18.33;65.63;98382.06;1764109;80;21636;-53
2021/05/17 10:08:07;;;;;;;3.27;0.37;;;;;;;18.29;66.43;98371.15;1764262;80;20921;-54
2021/05/17 10:10:34;;;;;;;2.15;0.40;;;;;;;18.25;67.31;98347.44;1764273;80;21476;-53
2021/05/17 10:13:03;;;;;;;3.70;0.40;;;;;;;18.21;67.88;98335.63;1767085;80;20949;-53
2021/05/17 10:15:33;;;;;;;0.62;0.40;;;;;;;18.13;68.56;98315.49;1765817;80;21003;-53
2021/05/17 10:17:59;;;;;;;0.75;0.40;;;;;;;18.08;69.39;98286.52;1729297;81;20981;-53
2021/05/17 10:20:27;;;;;;;1.22;0.60;;;;;;;18.07;70.22;98255.36;1764657;80;20919;-54
2021/05/17 10:22:57;;;;;;;1.20;0.60;;;;;;;18.03;70.50;98227.58;1763929;80;20948;-53
2021/05/17 10:25:27;;;;;;;1.85;0.60;;;;;;;17.96;71.07;98190.27;1725798;82;21065;-52
2021/05/17 10:27:57;;;;;;;1.98;0.40;;;;;;;17.87;71.49;98158.05;1764114;80;21230;-53
2021/05/17 10:30:31;;;;;;;3.85;0.50;;;;;;;17.78;71.93;98141.30;1757946;80;21814;-52
2021/05/17 10:33:02;;;;;;;0.80;0.50;;;;;;;17.67;72.29;98153.81;1761465;80;21530;-53
2021/05/17 10:35:45;;;;;;;0.50;0.40;;;;;;;17.59;72.64;98191.80;1759447;80;20963;-52
2021/05/17 10:38:42;;;;;;;1.87;0.50;;;;;;;17.55;72.67;98187.66;1753556;80;21275;-54
2021/05/17 10:41:36;;;;;;;0.45;0.40;;;;;;;17.51;72.68;98154.49;1760523;80;21044;-52
2021/05/17 10:44:14;;;;;;;1.85;0.40;;;;;;;17.47;72.66;98175.34;1763282;80;21042;-52
2021/05/17 10:46:52;;;;;;;0.90;0.50;;;;;;;17.47;72.83;98210.70;1728269;82;20897;-51
2021/05/17 10:49:32;;;;;;;1.40;0.40;;;;;;;17.49;72.63;98210.05;1767128;80;20920;-52
2021/05/17 10:52:10;;;;;;;2.15;0.50;;;;;;;17.55;72.82;98212.14;1703854;82;21323;-53
2021/05/17 10:54:40;;;;;;;0.50;0.40;;;;;;;17.62;72.94;98213.27;1765387;80;21500;-51
2021/05/17 10:57:25;;;;;;;0.93;0.50;;;;;;;17.72;72.87;98214.05;1726475;81;22251;-53
2021/05/17 11:02:39;;;;;;;1.20;0.50;;;;;;;18.00;73.01;98213.45;1743832;80;21561;-52
2021/05/17 11:05:20;;;;;;;3.02;0.50;;;;;;;18.17;72.93;98209.84;1754616;80;21064;-51
2021/05/17 11:07:58;;;;;;;0.70;0.50;;;;;;;18.30;72.54;98218.44;1751785;80;21098;-51
2021/05/17 11:10:50;;;;;;;3.12;0.50;;;;;;;18.43;71.89;98222.11;1751386;80;20969;-52
2021/05/17 11:13:19;;;;;;;0.80;0.50;;;;;;;18.54;70.75;98225.94;1752493;80;20960;-52
2021/05/17 11:16:08;;;;;;;2.47;0.40;;;;;;;18.62;70.22;98231.47;1752040;80;21771;-51
2021/05/17 11:18:40;;;;;;;0.50;0.40;;;;;;;18.68;69.26;98219.91;1749566;80;21410;-51
2021/05/17 11:21:27;;;;;;;0.40;0.40;;;;;;;18.71;68.77;98225.05;1754576;80;21774;-51
2021/05/17 11:24:00;;;;;;;1.30;0.50;;;;;;;18.76;68.64;98234.09;1752598;80;20990;-51
2021/05/17 11:26:29;;;;;;;1.37;0.50;;;;;;;18.77;67.55;98232.58;1751071;80;21108;-52
2021/05/17 11:28:57;;;;;;;0.60;0.50;;;;;;;18.76;67.02;98236.31;1750513;80;21430;-52
2021/05/17 11:34:05;;;;;;;3.25;0.50;;;;;;;18.78;67.67;98235.65;1751510;80;21047;-52
2021/05/17 11:36:51;;;;;;;0.50;0.40;;;;;;;18.84;67.45;98239.08;1673834;83;21585;-51
2021/05/17 11:39:23;;;;;;;0.40;0.40;;;;;;;18.86;67.21;98241.14;1755321;80;21114;-51
2021/05/17 11:42:02;;;;;;;0.55;0.40;;;;;;;18.92;67.44;98242.35;1751849;80;21031;-52
2021/05/17 11:45:10;;;;;;;0.65;0.40;;;;;;;18.97;67.28;98240.52;1753594;80;20957;-52
2021/05/17 11:47:11;;;;;;;0.60;0.50;;;;;;;19.01;67.09;98245.98;1755403;80;21058;-50
2021/05/17 11:49:42;;;;;;;0.68;0.40;;;;;;;18.98;66.68;98248.51;1672357;83;21561;-52
2021/05/17 11:52:12;;;;;;;0.60;0.50;;;;;;;18.95;66.59;98252.09;1753499;80;21123;-51
2021/05/17 11:54:49;;;;;;;1.65;0.40;;;;;;;18.88;67.02;98249.16;1751068;80;21576;-51
2021/05/17 11:57:15;;;;;;;0.70;0.40;;;;;;;18.82;66.75;98245.20;1756785;80;21385;-52
2021/05/17 11:59:41;;;;;;;1.40;0.60;;;;;;;18.77;66.71;98248.07;1753025;80;21595;-51
2021/05/17 12:02:11;;;;;;;2.62;0.40;;;;;;;18.74;66.82;98242.42;1752827;80;21524;-52
2021/05/17 12:04:38;;;;;;;0.40;0.40;;;;;;;18.73;66.86;98243.94;1720906;82;21613;-52
2021/05/17 12:07:17;;;;;;;0.42;0.40;;;;;;;18.69;66.95;98239.34;1704326;82;21087;-51